Kirkwood Voorhees, New Jersey
Current Conditions -  °F | °C
As of 9:54 PM on Friday 19 Dec 2014 (Local Time) from KVAY Reporting Station
Few Clouds Few Clouds  
Wind Chill: 24°   Ceiling: Unl
Heat Index: 30°   Visibility: 10mi
Dew Point: 20°   Wind: 6mph
Humidity: 66%   Direction: 310°NW
Pressure: 30.2"   Gusts: NA
Location:  39.8445°N, 74.9532°W
Report Text: KVAY 200254Z AUTO 31005KT 10SM FEW032 M01/M07 A3020 RMK AO2 SLP225 T10111067 51009
Loading
Personal Weather Stations






























Interactive Weather Map New forecast layout! Learn more

10-Day Weather Forecast

Advertisements
Track Severe Weather on mobile